Time;durP1;ratioP1;P1;durP2;ratioP2;P2;SDS_P1;SDS_P2;PMS_P1;PMS_P2;Temp;Humidity;BMP_temperature;BMP_pressure;BME280_temperature;BME280_humidity;BME280_pressure;Samples;Min_cycle;Max_cycle;Signal;HPM_P1;HPM_P2
2024/03/13 00:00:10;;;;;;;57.97;28.05;;;;;;;4.18;80.54;98738.00;5068728;28;20035;-78
2024/03/13 00:02:39;;;;;;;64.30;26.98;;;;;;;4.16;80.84;98731.31;5070078;28;20063;-78
2024/03/13 00:05:06;;;;;;;57.72;27.10;;;;;;;4.14;80.93;98717.50;5054910;28;22124;-78
2024/03/13 00:07:32;;;;;;;59.67;27.55;;;;;;;4.20;81.24;98730.69;5062820;28;20118;-77
2024/03/13 00:10:00;;;;;;;65.03;27.80;;;;;;;4.10;80.87;98725.06;5065874;28;20434;-78
2024/03/13 00:12:26;;;;;;;67.45;30.67;;;;;;;4.20;80.49;98735.97;5066021;28;20043;-78
2024/03/13 00:14:52;;;;;;;64.45;28.45;;;;;;;4.10;80.56;98725.06;5055433;28;20111;-78
2024/03/13 00:17:20;;;;;;;69.50;30.88;;;;;;;4.20;80.37;98733.31;5054597;28;20117;-77
2024/03/13 00:19:48;;;;;;;63.05;27.75;;;;;;;4.10;80.58;98729.53;5075284;28;20058;-78
2024/03/13 00:22:18;;;;;;;55.42;25.50;;;;;;;4.08;80.81;98726.28;5067672;28;20093;-76
2024/03/13 00:24:46;;;;;;;61.50;28.58;;;;;;;4.14;80.47;98734.19;5073888;28;20032;-77
2024/03/13 00:27:12;;;;;;;63.47;27.98;;;;;;;4.14;80.57;98738.63;5053388;28;20111;-77
2024/03/13 00:29:38;;;;;;;70.13;27.58;;;;;;;4.10;80.87;98743.53;5069401;28;20043;-76
2024/03/13 00:32:04;;;;;;;65.30;29.23;;;;;;;4.03;80.90;98734.84;5066218;28;20036;-76
2024/03/13 00:34:30;;;;;;;66.18;29.20;;;;;;;4.15;81.24;98748.97;5051052;28;20451;-77
2024/03/13 00:36:55;;;;;;;63.38;27.90;;;;;;;4.12;80.68;98746.78;5070710;28;20115;-77
2024/03/13 00:39:22;;;;;;;68.22;30.27;;;;;;;4.10;81.07;98745.38;5069387;28;20099;-77
2024/03/13 00:41:47;;;;;;;61.10;27.52;;;;;;;4.00;80.87;98748.44;5070597;28;21116;-77
2024/03/13 00:44:13;;;;;;;58.97;26.60;;;;;;;4.02;80.91;98749.03;5039893;28;20111;-77
2024/03/13 00:46:40;;;;;;;62.60;27.20;;;;;;;4.03;80.78;98752.50;5068951;28;20576;-78
2024/03/13 00:49:07;;;;;;;57.08;27.35;;;;;;;3.89;80.26;98741.16;5041838;28;20040;-77
2024/03/13 00:51:33;;;;;;;58.08;24.75;;;;;;;3.80;80.84;98753.78;5065381;28;20055;-76
2024/03/13 00:54:04;;;;;;;59.05;27.38;;;;;;;3.84;80.94;98742.81;5059407;28;20119;-76
2024/03/13 00:56:30;;;;;;;61.65;26.92;;;;;;;3.85;81.27;98749.69;5044241;28;20504;-78
2024/03/13 00:58:56;;;;;;;55.45;26.13;;;;;;;3.83;81.14;98749.91;5076650;28;20024;-78
2024/03/13 01:01:22;;;;;;;58.78;26.80;;;;;;;3.80;80.76;98737.94;5076577;28;20036;-79
2024/03/13 01:03:48;;;;;;;50.53;23.90;;;;;;;3.87;80.71;98743.19;5059526;28;20062;-78
2024/03/13 01:06:14;;;;;;;54.78;24.95;;;;;;;3.85;80.84;98739.16;5073162;28;20056;-78
2024/03/13 01:08:39;;;;;;;59.05;27.77;;;;;;;3.80;80.79;98734.50;5058897;28;20111;-77
2024/03/13 01:11:05;;;;;;;50.80;25.73;;;;;;;3.78;80.63;98747.09;5070389;28;20778;-77
2024/03/13 01:13:30;;;;;;;60.05;26.85;;;;;;;3.86;80.67;98738.13;5074955;28;20035;-78
2024/03/13 01:15:56;;;;;;;62.15;27.77;;;;;;;3.87;80.63;98740.56;5073750;28;20035;-78
2024/03/13 01:18:21;;;;;;;59.17;25.83;;;;;;;3.78;80.81;98732.06;5077511;28;20028;-78
2024/03/13 01:20:47;;;;;;;60.47;27.15;;;;;;;3.72;80.45;98732.09;5072190;28;20094;-76
2024/03/13 01:23:13;;;;;;;53.67;25.52;;;;;;;3.71;80.79;98730.47;5052740;28;20032;-77
2024/03/13 01:25:41;;;;;;;58.45;24.50;;;;;;;3.78;80.33;98725.97;5065885;28;20044;-79
2024/03/13 01:28:07;;;;;;;65.85;25.30;;;;;;;3.75;80.37;98713.22;5073094;28;20073;-78
2024/03/13 01:30:33;;;;;;;58.72;24.58;;;;;;;3.76;80.74;98720.09;5069468;28;20040;-77
2024/03/13 01:32:58;;;;;;;56.92;25.73;;;;;;;3.80;80.90;98719.47;5072228;28;20087;-78
2024/03/13 01:35:23;;;;;;;51.13;24.80;;;;;;;3.77;80.97;98713.81;5071724;28;20657;-77
2024/03/13 01:38:02;;;;;;;49.53;24.17;;;;;;;3.73;80.79;98712.59;5069334;28;20024;-78
2024/03/13 01:57:28;;;;;;;53.65;24.63;;;;;;;3.69;81.18;98696.34;5072826;28;20102;-78
2024/03/13 02:02:39;;;;;;;57.50;27.75;;;;;;;3.64;81.18;98692.72;5073386;28;20039;-78
2024/03/13 02:05:05;;;;;;;61.47;26.23;;;;;;;3.66;81.33;98691.50;5076557;28;20427;-78
2024/03/13 02:07:31;;;;;;;53.28;26.83;;;;;;;3.58;81.17;98690.94;5075465;28;20392;-77
2024/03/13 02:09:58;;;;;;;67.25;28.00;;;;;;;3.22;81.71;98699.31;5080032;28;20029;-78
2024/03/13 02:12:23;;;;;;;52.85;26.15;;;;;;;3.41;81.63;98705.56;5075607;28;20115;-77
2024/03/13 02:14:49;;;;;;;58.72;25.42;;;;;;;3.58;81.28;98690.94;5074673;28;20056;-78
2024/03/13 02:17:15;;;;;;;60.40;24.92;;;;;;;3.64;80.97;98692.72;5058221;28;20040;-76
2024/03/13 02:19:40;;;;;;;58.42;26.00;;;;;;;3.63;80.67;98693.75;5072011;28;20042;-76
2024/03/13 02:22:07;;;;;;;60.22;26.90;;;;;;;3.66;80.48;98690.69;5054359;28;20048;-76
2024/03/13 02:24:33;;;;;;;57.58;26.50;;;;;;;3.57;80.54;98681.38;5072513;28;20731;-78
2024/03/13 02:27:00;;;;;;;56.97;27.17;;;;;;;3.54;79.83;98668.59;5060233;28;20032;-78
2024/03/13 02:29:26;;;;;;;60.45;27.63;;;;;;;3.54;79.90;98693.16;5074495;28;20450;-78
2024/03/13 02:31:51;;;;;;;55.60;25.17;;;;;;;3.50;79.88;98686.69;5075127;28;20108;-77
2024/03/13 02:34:18;;;;;;;59.92;25.42;;;;;;;3.51;80.78;98677.75;5058994;28;20032;-78
2024/03/13 02:36:43;;;;;;;59.40;25.88;;;;;;;3.42;81.14;98681.63;5077640;28;21626;-77
2024/03/13 02:39:09;;;;;;;55.67;27.52;;;;;;;3.50;81.04;98677.94;5055453;28;20066;-78
2024/03/13 02:41:34;;;;;;;63.83;28.08;;;;;;;3.54;81.30;98687.88;5073344;28;20051;-76
2024/03/13 02:44:00;;;;;;;55.20;25.40;;;;;;;3.53;81.41;98698.66;5069254;28;20032;-76
2024/03/13 02:46:25;;;;;;;67.32;28.23;;;;;;;3.35;82.35;98680.00;5069275;28;20055;-77
2024/03/13 02:48:51;;;;;;;59.78;28.02;;;;;;;3.44;82.88;98687.50;5054647;28;20021;-77
2024/03/13 02:51:17;;;;;;;58.92;27.65;;;;;;;3.64;82.49;98700.66;5036419;28;20036;-77
2024/03/13 02:53:42;;;;;;;63.38;27.73;;;;;;;3.49;82.39;98686.91;5053345;28;20047;-78
2024/03/13 02:56:08;;;;;;;59.92;28.35;;;;;;;3.67;81.99;98685.19;5072600;28;20534;-78
2024/03/13 02:58:35;;;;;;;67.97;30.33;;;;;;;3.56;81.91;98682.41;5033546;28;20036;-77
2024/03/13 03:01:01;;;;;;;64.45;27.98;;;;;;;3.54;82.41;98687.88;5067166;28;20456;-77
2024/03/13 03:03:30;;;;;;;60.42;28.90;;;;;;;3.57;83.04;98695.41;5053569;28;20353;-77
2024/03/13 03:06:01;;;;;;;58.03;27.08;;;;;;;3.51;83.42;98704.16;5071130;28;20033;-77
2024/03/13 03:08:32;;;;;;;63.53;27.52;;;;;;;3.47;82.93;98705.53;5072012;28;20039;-77
2024/03/13 03:10:57;;;;;;;63.47;29.20;;;;;;;3.54;82.69;98706.34;5057014;28;20032;-77
2024/03/13 03:13:23;;;;;;;60.88;27.33;;;;;;;3.52;83.13;98699.66;5069813;28;20037;-77
2024/03/13 03:15:48;;;;;;;61.10;27.33;;;;;;;3.48;83.61;98696.63;5053822;28;20040;-77
2024/03/13 03:18:14;;;;;;;68.78;30.48;;;;;;;3.52;83.42;98697.00;5068661;28;20079;-78
2024/03/13 03:20:40;;;;;;;67.20;31.17;;;;;;;3.53;84.03;98698.66;5068117;28;20119;-77
2024/03/13 03:23:08;;;;;;;63.60;30.25;;;;;;;3.60;83.85;98691.53;5075317;28;20544;-77
2024/03/13 03:25:34;;;;;;;61.75;29.63;;;;;;;3.51;84.18;98693.59;5068063;28;20035;-78
2024/03/13 03:27:59;;;;;;;63.75;28.10;;;;;;;3.52;84.17;98702.28;5071963;28;20028;-77
2024/03/13 03:30:30;;;;;;;68.82;30.80;;;;;;;3.45;84.30;98686.47;5072282;28;20047;-77
2024/03/13 03:32:56;;;;;;;65.18;28.15;;;;;;;3.37;85.13;98696.44;5075614;28;20440;-77
2024/03/13 03:35:21;;;;;;;64.47;28.75;;;;;;;3.45;84.89;98709.44;5034063;28;20033;-77
2024/03/13 03:37:46;;;;;;;62.10;27.55;;;;;;;3.42;84.53;98691.38;5073848;28;20031;-78
2024/03/13 03:40:18;;;;;;;68.88;28.42;;;;;;;3.56;84.92;98708.81;5074000;28;20036;-76
2024/03/13 03:42:43;;;;;;;62.47;29.30;;;;;;;3.47;84.87;98697.63;5057033;28;20032;-78
2024/03/13 03:45:09;;;;;;;66.03;29.08;;;;;;;3.51;84.16;98692.78;5067985;28;20028;-77
2024/03/13 03:47:35;;;;;;;63.45;28.42;;;;;;;3.52;84.24;98691.75;5032677;28;20032;-77
2024/03/13 03:50:01;;;;;;;62.30;29.73;;;;;;;3.49;84.63;98693.00;5068560;28;20044;-77
2024/03/13 03:52:27;;;;;;;70.38;31.58;;;;;;;3.55;83.45;98683.41;5072399;28;20034;-77
2024/03/13 03:54:52;;;;;;;63.60;29.77;;;;;;;3.57;84.01;98694.56;5069892;28;20088;-77
2024/03/13 03:57:19;;;;;;;70.75;30.70;;;;;;;3.63;84.06;98696.38;5071441;28;20028;-77
2024/03/13 03:59:45;;;;;;;68.07;29.30;;;;;;;3.69;84.18;98698.22;5069562;28;20078;-78
2024/03/13 04:02:10;;;;;;;67.15;32.45;;;;;;;3.75;84.28;98686.81;5070042;28;20028;-77
2024/03/13 04:04:37;;;;;;;70.10;31.67;;;;;;;3.69;83.91;98690.28;5070639;28;20495;-78
2024/03/13 04:07:02;;;;;;;67.53;31.02;;;;;;;3.68;84.14;98701.84;5057063;28;20023;-77
2024/03/13 04:09:28;;;;;;;61.33;28.98;;;;;;;3.69;84.04;98699.00;5040341;28;20032;-77
2024/03/13 04:11:53;;;;;;;68.93;30.33;;;;;;;3.61;83.88;98685.22;5052643;28;20028;-77
2024/03/13 04:14:19;;;;;;;65.68;31.13;;;;;;;3.66;84.15;98701.25;5051995;28;20032;-77
2024/03/13 04:16:45;;;;;;;71.45;30.67;;;;;;;3.65;84.22;98711.00;5068796;28;20041;-77
2024/03/13 04:19:11;;;;;;;71.53;30.02;;;;;;;3.72;85.16;98714.44;5054716;28;20392;-77
2024/03/13 04:21:39;;;;;;;63.88;28.83;;;;;;;3.71;85.12;98709.38;5069722;28;20062;-77
2024/03/13 04:24:07;;;;;;;67.28;30.20;;;;;;;3.70;85.26;98718.28;5070034;28;20028;-78
2024/03/13 04:26:36;;;;;;;68.22;29.45;;;;;;;3.61;85.32;98703.69;5068206;28;20066;-76
2024/03/13 04:29:02;;;;;;;61.78;27.67;;;;;;;3.69;85.69;98712.19;5068781;28;20077;-76
2024/03/13 04:31:27;;;;;;;61.00;29.65;;;;;;;3.67;85.93;98702.84;5069952;28;20025;-77
2024/03/13 04:33:53;;;;;;;62.65;27.20;;;;;;;3.76;85.58;98698.97;5036430;28;20023;-76
2024/03/13 04:36:19;;;;;;;60.05;29.55;;;;;;;3.59;85.72;98692.53;5069340;28;20036;-76
2024/03/13 04:38:50;;;;;;;61.00;29.10;;;;;;;3.71;86.80;98712.78;5055108;28;20028;-76
2024/03/13 04:41:19;;;;;;;73.78;32.30;;;;;;;3.87;85.88;98718.66;5068530;28;20112;-76
2024/03/13 04:43:46;;;;;;;55.63;29.13;;;;;;;3.75;86.29;98715.84;5067527;28;20028;-76
2024/03/13 04:46:16;;;;;;;69.60;31.83;;;;;;;3.94;86.25;98716.78;5067252;28;20060;-76
2024/03/13 04:48:43;;;;;;;62.35;28.80;;;;;;;4.00;86.20;98721.25;5066274;28;20032;-76
2024/03/13 04:51:09;;;;;;;62.75;29.10;;;;;;;4.11;85.36;98718.75;5065455;28;20488;-77
2024/03/13 04:53:35;;;;;;;63.45;30.98;;;;;;;4.17;85.66;98720.53;5071542;28;20085;-76
2024/03/13 04:56:03;;;;;;;62.63;28.75;;;;;;;4.09;85.89;98722.59;5033035;28;20024;-76
2024/03/13 04:58:28;;;;;;;62.35;28.45;;;;;;;4.19;86.26;98721.16;5064821;28;20446;-76
2024/03/13 05:00:54;;;;;;;63.08;29.17;;;;;;;4.17;86.31;98725.81;5066400;28;20034;-78
2024/03/13 05:03:19;;;;;;;65.43;29.13;;;;;;;4.23;86.57;98725.00;5050295;28;20032;-76
2024/03/13 05:05:47;;;;;;;57.30;27.92;;;;;;;4.09;86.25;98727.88;5060939;28;20060;-78
2024/03/13 05:08:16;;;;;;;61.88;28.98;;;;;;;4.39;86.50;98727.13;5067642;28;20094;-77
2024/03/13 05:10:45;;;;;;;55.72;27.48;;;;;;;4.39;85.01;98728.97;5073281;28;20036;-78
2024/03/13 05:13:10;;;;;;;59.22;26.55;;;;;;;4.36;85.60;98730.22;5069602;28;20498;-77
2024/03/13 05:15:36;;;;;;;60.47;28.95;;;;;;;4.27;85.94;98715.63;5072093;28;20086;-78
2024/03/13 05:18:02;;;;;;;58.35;26.27;;;;;;;4.23;86.94;98732.09;5057149;28;20499;-77
2024/03/13 05:20:28;;;;;;;61.63;26.83;;;;;;;4.33;87.04;98730.63;5065300;28;20595;-76
2024/03/13 05:22:53;;;;;;;55.70;26.30;;;;;;;4.34;86.44;98742.00;5065422;28;20037;-76
2024/03/13 05:25:22;;;;;;;57.45;28.75;;;;;;;4.38;86.58;98740.56;5068116;28;20102;-76
2024/03/13 05:27:49;;;;;;;52.83;24.98;;;;;;;4.31;86.72;98730.03;5070769;28;20060;-77
2024/03/13 05:30:15;;;;;;;51.65;25.48;;;;;;;4.41;86.30;98740.94;5067606;28;20037;-76
2024/03/13 05:32:41;;;;;;;54.42;24.65;;;;;;;4.35;86.86;98725.13;5072733;28;20063;-77
2024/03/13 05:35:08;;;;;;;55.67;26.75;;;;;;;4.49;86.04;98738.06;5068046;28;20349;-77
2024/03/13 05:37:34;;;;;;;53.28;26.25;;;;;;;4.62;85.82;98749.56;5065937;28;20559;-77
2024/03/13 05:40:01;;;;;;;54.58;24.55;;;;;;;4.49;85.25;98730.13;5063858;28;20037;-76
2024/03/13 05:42:27;;;;;;;52.63;25.58;;;;;;;4.50;85.33;98738.84;5069714;28;20039;-76
2024/03/13 05:44:52;;;;;;;52.63;26.08;;;;;;;4.23;87.27;98754.06;5049491;28;20032;-76
2024/03/13 05:47:20;;;;;;;53.45;24.42;;;;;;;4.34;87.07;98750.75;5070622;28;20031;-77
2024/03/13 05:49:45;;;;;;;56.95;24.27;;;;;;;4.37;86.65;98742.38;5071700;28;20041;-77
2024/03/13 05:52:11;;;;;;;55.15;25.63;;;;;;;4.48;86.02;98749.66;5066447;28;20027;-77
2024/03/13 05:54:36;;;;;;;50.78;24.05;;;;;;;4.23;87.28;98745.31;5064263;28;20086;-77
2024/03/13 05:57:08;;;;;;;50.40;25.10;;;;;;;4.29;86.75;98742.63;5072504;28;20046;-77
2024/03/13 05:59:37;;;;;;;50.65;23.27;;;;;;;4.26;87.15;98750.97;5077636;28;20052;-79
2024/03/13 06:02:02;;;;;;;54.75;25.45;;;;;;;4.32;87.28;98747.50;5059799;28;20035;-79
2024/03/13 06:04:28;;;;;;;49.20;24.33;;;;;;;4.32;87.20;98744.06;5076609;28;20032;-77
2024/03/13 06:06:53;;;;;;;51.10;23.05;;;;;;;4.38;87.59;98741.38;5069558;28;20078;-77
2024/03/13 06:09:19;;;;;;;53.60;22.85;;;;;;;4.50;86.61;98731.75;5071621;28;20028;-76
2024/03/13 06:11:45;;;;;;;54.10;24.33;;;;;;;4.52;86.61;98740.25;5055563;28;20157;-77
2024/03/13 06:14:10;;;;;;;55.13;25.63;;;;;;;4.52;86.76;98729.69;5072564;28;20449;-77
2024/03/13 06:16:36;;;;;;;54.25;25.15;;;;;;;4.50;87.49;98723.81;5086517;28;20093;-77
2024/03/13 06:19:01;;;;;;;56.72;24.50;;;;;;;4.71;86.66;98740.38;5089474;28;20500;-75
2024/03/13 06:21:26;;;;;;;56.88;24.15;;;;;;;4.56;87.30;98724.81;5091736;28;20032;-77
2024/03/13 06:23:58;;;;;;;51.35;21.95;;;;;;;4.63;86.98;98722.13;5047149;28;20028;-78
2024/03/13 06:26:24;;;;;;;54.55;25.35;;;;;;;4.60;87.01;98722.53;5076365;28;20047;-77
2024/03/13 06:31:37;;;;;;;53.70;24.15;;;;;;;4.75;86.66;98741.56;5040287;28;20040;-77
2024/03/13 06:34:03;;;;;;;49.53;23.90;;;;;;;4.78;86.71;98723.44;5073976;28;20047;-78
2024/03/13 06:36:29;;;;;;;50.30;23.35;;;;;;;4.52;88.97;98718.34;5042592;28;20028;-78
2024/03/13 06:38:54;;;;;;;53.67;25.70;;;;;;;4.91;86.75;98728.66;5060377;28;20032;-79
2024/03/13 06:41:19;;;;;;;55.05;23.45;;;;;;;4.96;86.37;98714.75;5044095;28;20040;-78
2024/03/13 06:43:45;;;;;;;46.47;21.25;;;;;;;4.94;87.44;98727.38;5042486;28;20040;-79
2024/03/13 06:46:10;;;;;;;41.92;21.83;;;;;;;5.18;85.57;98729.22;5079052;28;20043;-79
2024/03/13 06:48:35;;;;;;;50.45;22.52;;;;;;;5.15;85.76;98714.63;5079293;28;20033;-77
2024/03/13 06:51:14;;;;;;;44.08;20.77;;;;;;;5.10;85.80;98708.34;5044289;28;20036;-78
2024/03/13 06:53:39;;;;;;;45.47;21.40;;;;;;;5.29;84.58;98723.22;5076846;28;20029;-78
2024/03/13 06:56:05;;;;;;;43.15;22.10;;;;;;;4.83;88.51;98709.56;5076588;28;20039;-78
2024/03/13 06:58:31;;;;;;;43.20;21.75;;;;;;;4.87;88.03;98716.06;5079101;28;20108;-79
2024/03/13 07:00:57;;;;;;;46.33;21.70;;;;;;;4.57;92.16;98724.59;5038948;28;20052;-76
2024/03/13 07:03:23;;;;;;;46.15;22.13;;;;;;;5.11;87.50;98725.84;5078403;28;20583;-78
2024/03/13 07:05:52;;;;;;;46.92;21.33;;;;;;;5.18;85.95;98716.00;5057094;28;20115;-79
2024/03/13 07:08:18;;;;;;;39.55;20.55;;;;;;;5.22;85.72;98723.28;5077199;28;20032;-79
2024/03/13 07:10:44;;;;;;;46.78;20.25;;;;;;;5.30;86.06;98728.31;5079238;28;20078;-79
2024/03/13 07:13:11;;;;;;;41.75;19.65;;;;;;;5.26;85.74;98734.25;5075484;28;20028;-78
2024/03/13 07:15:38;;;;;;;41.17;21.13;;;;;;;5.19;85.77;98726.38;5076527;28;20020;-78
2024/03/13 07:18:04;;;;;;;43.80;20.33;;;;;;;5.18;86.18;98740.63;5041258;28;20050;-78
2024/03/13 07:20:30;;;;;;;38.53;19.70;;;;;;;5.10;86.43;98726.84;5058296;28;20111;-78
2024/03/13 07:22:55;;;;;;;38.38;20.92;;;;;;;5.20;85.98;98727.97;5076153;28;20033;-80
2024/03/13 07:25:21;;;;;;;38.20;21.05;;;;;;;5.23;86.12;98732.84;5071580;28;20020;-77
2024/03/13 07:27:46;;;;;;;42.45;21.17;;;;;;;5.21;86.22;98737.53;5055305;28;20033;-77
2024/03/13 07:30:14;;;;;;;37.97;19.67;;;;;;;5.21;87.35;98745.47;5072688;28;20040;-77
2024/03/13 07:32:41;;;;;;;41.25;21.75;;;;;;;5.14;87.13;98728.03;5051887;28;20032;-77
2024/03/13 07:35:09;;;;;;;47.75;22.52;;;;;;;5.21;86.85;98734.09;5054603;28;20078;-76
2024/03/13 07:37:34;;;;;;;43.55;20.73;;;;;;;5.14;87.25;98749.19;5051454;28;20033;-76
2024/03/13 07:40:00;;;;;;;44.95;20.83;;;;;;;5.14;87.75;98746.56;5072414;28;20040;-77
2024/03/13 07:42:25;;;;;;;47.35;22.02;;;;;;;5.06;88.40;98752.13;5054374;28;20086;-76
2024/03/13 07:44:51;;;;;;;43.60;18.40;;;;;;;5.18;88.37;98745.09;5068542;28;20090;-77
2024/03/13 07:47:16;;;;;;;39.92;21.17;;;;;;;5.17;90.00;98751.41;5054195;28;20040;-77
2024/03/13 07:49:43;;;;;;;47.05;22.33;;;;;;;5.14;94.06;98744.72;5069537;28;20035;-77
2024/03/13 07:52:08;;;;;;;45.38;21.58;;;;;;;5.32;90.31;98758.00;5065801;28;20039;-77
2024/03/13 07:54:37;;;;;;;47.10;23.83;;;;;;;5.45;89.88;98754.44;5069214;28;20392;-77
2024/03/13 07:57:04;;;;;;;48.72;22.17;;;;;;;5.56;88.72;98756.38;5077904;28;20034;-77
2024/03/13 07:59:30;;;;;;;36.70;20.00;;;;;;;5.67;88.14;98747.69;5071271;28;20028;-77
2024/03/13 08:01:55;;;;;;;39.83;21.17;;;;;;;5.72;88.86;98755.78;5067601;28;20519;-77
2024/03/13 08:04:23;;;;;;;37.00;18.58;;;;;;;5.73;92.28;98765.34;5057821;28;20111;-78
2024/03/13 08:06:48;;;;;;;34.60;18.35;;;;;;;5.76;89.63;98746.38;5067327;28;20086;-77
2024/03/13 08:09:14;;;;;;;34.47;19.02;;;;;;;5.90;89.77;98757.66;5057269;28;20032;-78
2024/03/13 08:11:39;;;;;;;32.80;18.70;;;;;;;6.03;87.71;98760.97;5066321;28;20103;-77
2024/03/13 08:14:04;;;;;;;37.75;18.85;;;;;;;6.02;86.55;98746.13;5071896;28;20037;-78
2024/03/13 08:16:30;;;;;;;39.47;20.10;;;;;;;6.00;92.02;98761.44;5052932;28;20035;-77
2024/03/13 08:18:57;;;;;;;33.47;19.33;;;;;;;6.06;91.38;98754.44;5070826;28;20066;-77
2024/03/13 08:21:24;;;;;;;30.73;17.33;;;;;;;6.28;88.52;98762.72;5070664;28;20495;-77
2024/03/13 08:23:49;;;;;;;32.72;17.42;;;;;;;6.35;86.35;98772.22;5068752;28;20052;-77
2024/03/13 08:26:16;;;;;;;32.83;16.88;;;;;;;6.24;89.92;98762.38;5069932;28;20071;-77
2024/03/13 08:28:41;;;;;;;30.48;17.15;;;;;;;6.44;86.63;98768.25;5033759;28;20052;-77
2024/03/13 08:31:07;;;;;;;30.65;17.95;;;;;;;6.45;86.35;98751.28;5069222;28;20131;-78
2024/03/13 08:33:33;;;;;;;35.40;17.05;;;;;;;6.54;85.60;98765.84;5064721;28;20393;-78
2024/03/13 08:36:01;;;;;;;30.95;16.58;;;;;;;6.56;86.69;98770.91;5074897;28;20040;-78
2024/03/13 08:38:27;;;;;;;28.45;14.32;;;;;;;6.52;89.88;98775.06;5071310;28;20025;-77
2024/03/13 08:40:54;;;;;;;26.10;15.30;;;;;;;6.62;87.41;98770.84;5072196;28;20403;-79
2024/03/13 08:43:20;;;;;;;30.70;16.95;;;;;;;6.76;85.19;98766.97;5067182;28;20101;-79
2024/03/13 08:45:46;;;;;;;23.95;14.38;;;;;;;6.76;87.69;98768.81;5067716;28;20040;-78
2024/03/13 08:48:11;;;;;;;26.70;15.63;;;;;;;6.88;84.85;98768.88;5062895;28;20048;-78
2024/03/13 08:50:37;;;;;;;23.65;13.52;;;;;;;6.87;85.54;98762.75;5069468;28;20600;-78
2024/03/13 08:53:03;;;;;;;29.45;15.52;;;;;;;7.03;85.11;98764.75;5075611;28;20039;-78
2024/03/13 08:55:32;;;;;;;22.73;12.48;;;;;;;7.01;86.40;98774.75;5060378;28;20523;-79
2024/03/13 08:57:58;;;;;;;26.13;14.45;;;;;;;7.01;84.59;98769.44;5054632;28;20115;-78
2024/03/13 09:00:24;;;;;;;23.48;13.07;;;;;;;7.06;85.26;98766.94;5067112;28;20056;-79
2024/03/13 09:02:55;;;;;;;19.30;11.48;;;;;;;7.15;85.19;98773.53;5070926;28;20024;-78
2024/03/13 09:05:21;;;;;;;20.52;12.55;;;;;;;7.21;83.85;98780.56;5073961;28;20362;-78
2024/03/13 09:07:46;;;;;;;21.25;13.20;;;;;;;7.23;84.90;98769.75;5073302;28;20032;-79
2024/03/13 09:10:12;;;;;;;20.08;11.63;;;;;;;7.26;86.11;98780.72;5081154;28;20127;-79
2024/03/13 09:12:38;;;;;;;23.45;11.02;;;;;;;7.26;84.75;98783.38;5073030;28;20445;-78
2024/03/13 09:15:05;;;;;;;23.08;11.55;;;;;;;7.22;85.43;98778.75;5070909;28;20121;-79
2024/03/13 09:17:30;;;;;;;18.60;10.07;;;;;;;7.29;85.19;98776.78;5052532;28;20024;-79
2024/03/13 09:19:56;;;;;;;16.15;9.40;;;;;;;7.14;86.76;98784.38;5069829;28;20461;-78
2024/03/13 09:22:22;;;;;;;17.20;9.52;;;;;;;7.36;87.72;98783.59;5075519;28;20024;-79
2024/03/13 09:24:47;;;;;;;15.80;8.85;;;;;;;7.46;86.38;98786.50;5076907;28;20068;-78
2024/03/13 09:27:13;;;;;;;13.63;8.77;;;;;;;7.66;85.67;98783.53;5079030;28;20035;-79
2024/03/13 09:29:39;;;;;;;15.60;10.07;;;;;;;7.71;85.24;98780.97;5045127;28;20025;-79
2024/03/13 09:32:04;;;;;;;14.52;9.27;;;;;;;7.73;85.21;98770.13;5072705;28;20033;-79
2024/03/13 09:34:30;;;;;;;17.23;10.15;;;;;;;7.82;84.26;98772.19;5072116;28;20154;-79
2024/03/13 09:36:59;;;;;;;14.55;9.55;;;;;;;7.85;84.36;98781.53;5076914;28;20035;-79
2024/03/13 09:39:25;;;;;;;15.30;8.68;;;;;;;7.83;84.35;98788.94;5069020;28;20493;-78
2024/03/13 09:41:55;;;;;;;14.80;8.82;;;;;;;7.74;83.94;98777.84;5054222;28;20044;-79
2024/03/13 09:44:20;;;;;;;13.80;7.47;;;;;;;7.72;84.22;98784.44;5076519;28;20049;-79
2024/03/13 09:46:48;;;;;;;11.55;7.13;;;;;;;7.77;84.88;98780.06;5074298;28;20549;-79
2024/03/13 09:49:14;;;;;;;11.80;7.40;;;;;;;7.59;84.88;98772.19;5057792;28;20496;-79
2024/03/13 09:51:43;;;;;;;10.15;5.80;;;;;;;7.87;84.40;98782.09;5059798;28;20082;-79
2024/03/13 09:54:11;;;;;;;11.30;6.28;;;;;;;7.94;84.90;98782.81;5075399;28;20055;-79
2024/03/13 09:56:40;;;;;;;9.73;6.13;;;;;;;7.98;84.72;98779.44;5072490;28;20021;-79
2024/03/13 09:59:08;;;;;;;9.32;6.00;;;;;;;7.96;83.35;98773.56;5069394;28;20389;-78
2024/03/13 10:01:42;;;;;;;9.93;6.43;;;;;;;7.89;84.16;98767.56;5076426;28;20076;-79
2024/03/13 10:04:12;;;;;;;10.55;6.20;;;;;;;7.90;84.54;98776.34;5076861;28;20055;-79
2024/03/13 10:06:43;;;;;;;11.05;5.38;;;;;;;7.89;83.55;98766.75;5074526;28;20039;-79
2024/03/13 10:09:12;;;;;;;7.10;5.13;;;;;;;7.99;84.21;98772.28;5079674;28;20033;-79
2024/03/13 10:11:46;;;;;;;10.00;5.57;;;;;;;8.00;83.79;98776.53;5077389;28;20119;-79
2024/03/13 10:14:12;;;;;;;9.10;5.22;;;;;;;7.96;83.97;98783.38;5054231;28;20033;-78
2024/03/13 10:16:42;;;;;;;8.98;5.63;;;;;;;8.02;84.70;98777.13;5071026;28;20517;-78
2024/03/13 10:19:12;;;;;;;8.98;5.22;;;;;;;7.90;85.04;98782.47;5073835;28;20036;-79
2024/03/13 10:21:40;;;;;;;7.85;4.70;;;;;;;7.95;84.16;98781.78;5074996;28;20074;-78
2024/03/13 10:24:08;;;;;;;10.75;6.03;;;;;;;8.12;84.31;98785.31;5071659;28;20112;-78
2024/03/13 10:26:39;;;;;;;8.73;5.25;;;;;;;7.91;85.34;98792.03;5076526;28;20024;-79
2024/03/13 10:29:08;;;;;;;6.25;4.55;;;;;;;7.95;85.54;98795.06;5070775;28;20031;-79
2024/03/13 10:31:35;;;;;;;9.35;5.47;;;;;;;7.93;84.86;98794.50;5077676;28;20101;-79
2024/03/13 10:34:01;;;;;;;7.88;4.72;;;;;;;7.97;84.04;98787.66;5072064;28;20115;-79
2024/03/13 10:36:26;;;;;;;7.32;4.40;;;;;;;7.90;84.75;98789.63;5075822;28;20473;-78
2024/03/13 10:38:53;;;;;;;8.00;4.32;;;;;;;7.93;85.57;98797.16;5055770;28;20032;-78
2024/03/13 10:41:18;;;;;;;6.90;4.72;;;;;;;7.98;84.65;98795.41;5069864;28;20056;-78
2024/03/13 10:43:43;;;;;;;10.25;5.45;;;;;;;7.90;84.97;98794.94;5071556;28;20071;-78
2024/03/13 10:46:11;;;;;;;7.00;4.38;;;;;;;7.88;85.75;98797.03;5056004;28;20473;-78
2024/03/13 10:48:38;;;;;;;6.30;4.70;;;;;;;7.98;85.41;98799.91;5071977;28;20036;-79
2024/03/13 10:51:04;;;;;;;7.43;4.90;;;;;;;7.97;85.29;98795.63;5073562;28;20021;-78
2024/03/13 10:53:32;;;;;;;6.15;4.13;;;;;;;7.92;85.47;98779.56;5073648;28;20035;-78
2024/03/13 10:55:57;;;;;;;7.95;5.05;;;;;;;8.07;86.17;98785.22;5069630;28;20100;-78
2024/03/13 10:58:23;;;;;;;7.55;4.45;;;;;;;7.96;86.45;98778.06;5070202;28;20421;-78
2024/03/13 11:00:49;;;;;;;8.23;4.75;;;;;;;8.02;85.87;98771.81;5056832;28;20546;-78
2024/03/13 11:03:15;;;;;;;7.38;4.63;;;;;;;8.17;85.37;98774.78;5067230;28;20160;-78
2024/03/13 11:05:42;;;;;;;6.88;4.78;;;;;;;8.28;85.43;98761.50;5074487;28;20028;-78
2024/03/13 11:08:07;;;;;;;6.80;3.85;;;;;;;8.32;84.88;98774.34;5078366;28;20051;-78
2024/03/13 11:10:34;;;;;;;7.75;4.47;;;;;;;8.41;85.28;98779.03;5077719;28;20439;-78
2024/03/13 11:13:06;;;;;;;6.30;4.60;;;;;;;8.48;85.85;98784.22;5069300;28;20109;-78
2024/03/13 11:15:37;;;;;;;6.93;4.95;;;;;;;8.52;85.91;98788.81;5077655;28;20543;-77
2024/03/13 11:18:05;;;;;;;5.80;4.68;;;;;;;8.44;85.27;98778.56;5089212;28;20028;-77
2024/03/13 11:20:39;;;;;;;6.65;4.65;;;;;;;8.50;85.38;98779.47;5066834;28;20025;-77
2024/03/13 11:23:17;;;;;;;11.32;5.05;;;;;;;8.50;84.92;98790.09;5075369;28;20033;-77
2024/03/13 11:25:45;;;;;;;6.65;5.28;;;;;;;8.57;85.37;98783.63;5064900;28;20067;-77
2024/03/13 11:28:19;;;;;;;6.57;4.40;;;;;;;8.36;85.35;98778.94;5069926;28;20028;-78
2024/03/13 11:30:47;;;;;;;6.70;4.53;;;;;;;8.33;85.51;98774.09;5063353;28;20462;-77
2024/03/13 11:33:14;;;;;;;7.32;5.13;;;;;;;8.31;85.71;98770.84;5075044;28;20079;-77
2024/03/13 11:35:40;;;;;;;5.25;4.63;;;;;;;8.48;85.00;98779.72;5071815;28;20012;-77
2024/03/13 11:38:09;;;;;;;6.85;5.22;;;;;;;8.64;84.71;98781.63;5067379;28;20489;-77
2024/03/13 11:40:36;;;;;;;7.30;5.88;;;;;;;8.37;85.45;98771.75;5079265;28;20036;-77
2024/03/13 11:43:03;;;;;;;5.63;4.22;;;;;;;8.62;84.79;98772.25;5069732;28;20097;-78
2024/03/13 11:45:30;;;;;;;6.40;4.60;;;;;;;8.67;85.07;98781.13;5069022;28;20439;-77
2024/03/13 11:48:01;;;;;;;7.60;4.57;;;;;;;8.38;85.71;98771.53;5054233;28;20410;-77